Time;durP1;ratioP1;P1;durP2;ratioP2;P2;SDS_P1;SDS_P2;PMS_P1;PMS_P2;Temp;Humidity;BMP_temperature;BMP_pressure;BME280_temperature;BME280_humidity;BME280_pressure;Samples;Min_cycle;Max_cycle;Signal;HPM_P1;HPM_P2
2023/01/26 00:00:50;;;;;;;24.33;10.07;;;-0.70;99.90;;;;;;5073544;28;20184;-86
2023/01/26 00:03:15;;;;;;;22.20;9.00;;;-0.70;99.90;;;;;;5072121;28;20207;-86
2023/01/26 00:05:41;;;;;;;24.17;9.40;;;-0.70;99.90;;;;;;5071976;28;20180;-86
2023/01/26 00:08:07;;;;;;;23.33;10.27;;;-0.70;99.90;;;;;;5073420;28;20202;-86
2023/01/26 00:10:36;;;;;;;19.70;9.30;;;-0.70;99.90;;;;;;5073370;28;20626;-86
2023/01/26 00:13:02;;;;;;;19.77;9.13;;;-0.70;99.90;;;;;;5072179;28;20514;-86
2023/01/26 00:15:28;;;;;;;16.90;8.30;;;-0.70;99.90;;;;;;5072947;28;20657;-86
2023/01/26 00:17:54;;;;;;;18.63;8.73;;;-0.70;99.90;;;;;;5072066;28;20199;-86
2023/01/26 00:20:19;;;;;;;19.90;8.70;;;-0.80;99.90;;;;;;5072790;28;20184;-86
2023/01/26 00:22:45;;;;;;;21.23;9.63;;;-0.80;99.90;;;;;;5071590;28;20213;-86
2023/01/26 00:25:10;;;;;;;18.47;8.53;;;-0.90;99.90;;;;;;5073266;28;20543;-86
2023/01/26 00:27:36;;;;;;;18.23;8.43;;;-0.90;99.90;;;;;;5071883;28;20570;-86
2023/01/26 00:30:02;;;;;;;16.50;7.87;;;-0.90;99.90;;;;;;5071704;28;20176;-86
2023/01/26 00:32:28;;;;;;;20.43;8.80;;;-0.90;99.90;;;;;;5071879;28;20182;-86
2023/01/26 00:34:53;;;;;;;18.77;8.57;;;-0.80;99.90;;;;;;5072466;28;20175;-86
2023/01/26 00:37:19;;;;;;;20.97;8.53;;;-0.80;99.90;;;;;;5071592;28;20638;-86
2023/01/26 00:39:45;;;;;;;17.20;8.27;;;-0.80;99.90;;;;;;5071352;28;20178;-86
2023/01/26 00:42:12;;;;;;;21.10;8.80;;;-0.80;99.90;;;;;;5071497;28;20269;-86
2023/01/26 00:44:40;;;;;;;20.83;9.00;;;-0.80;99.90;;;;;;5072897;28;20178;-86
2023/01/26 00:47:07;;;;;;;18.80;8.30;;;-0.80;99.90;;;;;;5071443;28;20182;-86
2023/01/26 00:49:33;;;;;;;18.07;8.47;;;-0.80;99.90;;;;;;5071675;28;20214;-86
2023/01/26 00:51:59;;;;;;;18.30;9.07;;;-0.80;99.90;;;;;;5072562;28;20203;-86
2023/01/26 00:54:25;;;;;;;20.87;9.10;;;-0.80;99.90;;;;;;5072754;28;20184;-86
2023/01/26 00:56:50;;;;;;;19.83;8.70;;;-0.90;99.90;;;;;;5072747;28;20180;-86
2023/01/26 00:59:16;;;;;;;18.10;8.33;;;-0.90;99.90;;;;;;5071170;28;20574;-86
2023/01/26 01:01:42;;;;;;;18.77;8.97;;;-0.80;99.90;;;;;;5071137;28;20191;-86
2023/01/26 01:04:07;;;;;;;17.57;7.77;;;-0.80;99.90;;;;;;5071370;28;20195;-86
2023/01/26 01:06:33;;;;;;;20.30;8.17;;;-0.70;99.90;;;;;;5072681;28;20175;-86
2023/01/26 01:08:59;;;;;;;17.73;8.20;;;-0.70;99.90;;;;;;5071353;28;20233;-86
2023/01/26 01:11:24;;;;;;;22.07;8.63;;;-0.70;99.90;;;;;;5070938;28;20187;-85
2023/01/26 01:13:50;;;;;;;19.97;8.90;;;-0.70;99.90;;;;;;5070998;28;20188;-86
2023/01/26 01:16:16;;;;;;;19.77;8.87;;;-0.70;99.90;;;;;;5071342;28;20712;-86
2023/01/26 01:18:42;;;;;;;19.60;9.53;;;-0.70;99.90;;;;;;5072172;28;20232;-87
2023/01/26 01:21:09;;;;;;;19.77;9.17;;;-0.70;99.90;;;;;;5070928;28;20179;-86
2023/01/26 01:23:35;;;;;;;17.00;7.97;;;-0.70;99.90;;;;;;5072375;28;20199;-86
2023/01/26 01:26:02;;;;;;;17.10;8.27;;;-0.60;99.90;;;;;;5072184;28;20190;-86
2023/01/26 01:28:28;;;;;;;16.40;7.93;;;-0.60;99.90;;;;;;5070850;28;20234;-86
2023/01/26 01:30:53;;;;;;;16.17;8.10;;;-0.60;99.90;;;;;;5070800;28;20204;-86
2023/01/26 01:33:20;;;;;;;17.90;8.03;;;-0.60;99.90;;;;;;5070601;28;20290;-87
2023/01/26 01:35:56;;;;;;;13.53;7.47;;;-0.50;99.90;;;;;;5073600;28;20188;-86
2023/01/26 01:38:21;;;;;;;13.63;6.97;;;-0.50;99.90;;;;;;5074942;28;20211;-86
2023/01/26 01:40:47;;;;;;;14.83;7.20;;;-0.50;99.90;;;;;;5074734;28;20190;-86
2023/01/26 01:43:12;;;;;;;14.00;7.30;;;-0.40;99.90;;;;;;5074727;28;20192;-86
2023/01/26 01:45:46;;;;;;;14.13;7.30;;;-0.40;99.90;;;;;;5074816;28;20176;-86
2023/01/26 01:48:26;;;;;;;13.40;7.13;;;-0.40;99.90;;;;;;5075010;28;20260;-86
2023/01/26 01:50:57;;;;;;;12.23;6.70;;;-0.40;99.90;;;;;;5074512;28;20226;-86
2023/01/26 01:53:28;;;;;;;14.30;7.10;;;-0.40;99.90;;;;;;5074677;28;20169;-86
2023/01/26 01:55:58;;;;;;;14.73;7.47;;;-0.40;99.90;;;;;;5076053;28;20171;-85
2023/01/26 01:58:25;;;;;;;14.53;7.50;;;-0.50;99.90;;;;;;5074710;28;20249;-86
2023/01/26 02:00:51;;;;;;;14.77;7.53;;;-0.60;99.90;;;;;;5075819;28;20227;-86
2023/01/26 02:03:20;;;;;;;12.60;6.70;;;-0.60;99.90;;;;;;5075836;28;20618;-86
2023/01/26 02:05:54;;;;;;;15.53;7.57;;;-0.60;99.90;;;;;;5075541;28;20682;-87
2023/01/26 02:08:26;;;;;;;16.43;7.43;;;-0.60;99.90;;;;;;5074213;28;20674;-86
2023/01/26 02:10:56;;;;;;;14.27;6.77;;;-0.70;99.90;;;;;;5075584;28;20183;-86
2023/01/26 02:13:23;;;;;;;12.80;7.30;;;-0.70;99.90;;;;;;5074053;28;20175;-86
2023/01/26 02:15:50;;;;;;;15.03;6.93;;;-0.70;99.90;;;;;;5074191;28;20253;-86
2023/01/26 02:18:16;;;;;;;13.23;7.00;;;-0.70;99.90;;;;;;5074407;28;20210;-86
2023/01/26 02:20:51;;;;;;;14.00;7.10;;;-0.70;99.90;;;;;;5074335;28;20183;-86
2023/01/26 02:23:44;;;;;;;12.57;6.77;;;-0.70;99.90;;;;;;5074043;28;20198;-86
2023/01/26 02:26:17;;;;;;;11.57;6.37;;;-0.60;99.90;;;;;;5074315;28;20163;-87
2023/01/26 02:28:44;;;;;;;12.97;6.87;;;-0.60;99.90;;;;;;5073857;28;20624;-86
2023/01/26 02:31:11;;;;;;;13.23;6.53;;;-0.60;99.90;;;;;;5074009;28;20186;-86
2023/01/26 02:33:37;;;;;;;12.37;5.90;;;-0.60;99.90;;;;;;5073538;28;20179;-87
2023/01/26 02:36:04;;;;;;;12.03;6.40;;;-0.60;99.90;;;;;;5074157;28;20771;-86
2023/01/26 02:38:38;;;;;;;12.20;6.30;;;-0.60;99.90;;;;;;5075106;28;20216;-86
2023/01/26 02:41:07;;;;;;;14.47;6.93;;;-0.60;99.90;;;;;;5073797;28;20172;-86
2023/01/26 02:43:33;;;;;;;13.40;6.33;;;-0.60;99.90;;;;;;5073594;28;20216;-86
2023/01/26 02:45:58;;;;;;;13.60;6.73;;;-0.60;99.90;;;;;;5074826;28;20295;-86
2023/01/26 02:51:15;;;;;;;11.27;6.33;;;-0.70;99.90;;;;;;5066257;28;20210;-86
2023/01/26 02:53:41;;;;;;;11.33;6.00;;;-0.70;99.90;;;;;;5073723;28;20184;-85
2023/01/26 02:56:07;;;;;;;11.20;5.93;;;-0.70;99.90;;;;;;5074946;28;20183;-86
2023/01/26 02:58:32;;;;;;;11.60;5.90;;;-0.70;99.90;;;;;;5074845;28;20200;-86
2023/01/26 03:00:58;;;;;;;9.70;5.70;;;-0.70;99.90;;;;;;5073556;28;20532;-86
2023/01/26 03:03:40;;;;;;;13.23;6.47;;;-0.70;99.90;;;;;;5074482;28;20603;-85
2023/01/26 03:06:09;;;;;;;11.30;5.90;;;-0.70;99.90;;;;;;5073242;28;20160;-86
2023/01/26 03:08:35;;;;;;;9.60;5.17;;;-0.70;99.90;;;;;;5073085;28;20196;-86
2023/01/26 03:11:00;;;;;;;11.87;5.37;;;-0.70;99.90;;;;;;5072950;28;20176;-86
2023/01/26 03:13:26;;;;;;;11.30;4.87;;;-0.70;99.90;;;;;;5073459;28;20266;-86
2023/01/26 03:15:53;;;;;;;9.63;5.40;;;-0.60;99.90;;;;;;5073353;28;20594;-86
2023/01/26 03:29:34;;;;;;;9.67;4.93;;;-0.80;99.90;;;;;;5074284;28;20172;-86
2023/01/26 03:32:00;;;;;;;8.83;5.17;;;-0.90;99.90;;;;;;5072714;28;20560;-86
2023/01/26 03:34:28;;;;;;;11.67;5.87;;;-0.90;99.90;;;;;;5072582;28;20183;-86
2023/01/26 03:36:54;;;;;;;10.07;5.50;;;-0.90;99.90;;;;;;5072915;28;20602;-86
2023/01/26 03:56:18;;;;;;;9.63;5.37;;;-1.00;99.90;;;;;;5073791;28;20209;-86
2023/01/26 03:58:44;;;;;;;9.90;5.30;;;-1.10;99.90;;;;;;5072995;28;20207;-86
2023/01/26 04:01:18;;;;;;;11.03;5.50;;;-1.10;99.90;;;;;;5072050;28;20175;-86
2023/01/26 04:09:14;;;;;;;8.90;4.50;;;-1.00;99.90;;;;;;5073380;28;20194;-86
2023/01/26 04:11:39;;;;;;;9.47;4.90;;;-1.00;99.90;;;;;;5073298;28;20170;-86
2023/01/26 04:22:17;;;;;;;8.90;4.83;;;-0.80;99.90;;;;;;5073180;28;20213;-86
2023/01/26 04:24:43;;;;;;;9.67;4.83;;;-0.90;99.90;;;;;;5071989;28;20180;-86
2023/01/26 04:27:10;;;;;;;10.40;4.70;;;-0.90;99.90;;;;;;5071961;28;20183;-86
2023/01/26 04:29:36;;;;;;;9.03;4.93;;;-0.80;99.90;;;;;;5072890;28;20183;-84
2023/01/26 04:32:01;;;;;;;7.80;4.30;;;-0.90;99.90;;;;;;5073084;28;20180;-86
2023/01/26 04:34:27;;;;;;;8.80;5.00;;;-0.90;99.90;;;;;;5072367;28;20178;-86
2023/01/26 04:36:52;;;;;;;7.90;4.17;;;-0.90;99.90;;;;;;5071909;28;20191;-86
2023/01/26 04:39:18;;;;;;;8.63;4.73;;;-0.90;99.90;;;;;;5071276;28;20219;-86
2023/01/26 04:41:44;;;;;;;8.70;4.90;;;-0.80;99.90;;;;;;5071366;28;20171;-86
2023/01/26 04:44:10;;;;;;;6.70;4.50;;;-0.90;99.90;;;;;;5071520;28;20195;-86
2023/01/26 04:46:35;;;;;;;5.80;3.80;;;-0.90;99.90;;;;;;5071506;28;20237;-86
2023/01/26 04:49:01;;;;;;;8.43;4.40;;;-0.90;99.90;;;;;;5071627;28;20202;-86
2023/01/26 04:51:27;;;;;;;6.90;4.30;;;-1.00;99.90;;;;;;5072714;28;20178;-86
2023/01/26 04:53:53;;;;;;;6.93;4.07;;;-1.10;99.90;;;;;;5072817;28;20172;-86
2023/01/26 04:56:27;;;;;;;8.37;4.70;;;-1.10;99.90;;;;;;5071327;28;20730;-86
2023/01/26 04:58:54;;;;;;;6.60;4.40;;;-1.20;99.90;;;;;;5072729;28;20206;-86
2023/01/26 05:01:20;;;;;;;7.43;4.17;;;-1.10;99.90;;;;;;5071248;28;20263;-86
2023/01/26 05:03:46;;;;;;;7.60;4.20;;;-1.10;99.90;;;;;;5071107;28;20197;-86
2023/01/26 05:06:12;;;;;;;8.10;4.67;;;-1.20;99.90;;;;;;5072486;28;20171;-86
2023/01/26 05:08:38;;;;;;;6.77;4.13;;;-1.20;99.90;;;;;;5072181;28;20187;-85
2023/01/26 05:11:04;;;;;;;7.83;4.13;;;-1.10;99.90;;;;;;5071268;28;20256;-86
2023/01/26 05:13:29;;;;;;;6.83;4.33;;;-1.10;99.90;;;;;;5071108;28;20201;-85
2023/01/26 05:15:55;;;;;;;6.53;3.97;;;-1.10;99.90;;;;;;5071269;28;20203;-86
2023/01/26 05:18:21;;;;;;;7.10;3.93;;;-1.10;99.90;;;;;;5072138;28;20194;-86
2023/01/26 05:20:47;;;;;;;8.50;4.87;;;-1.10;99.90;;;;;;5072364;28;20183;-85
2023/01/26 05:23:12;;;;;;;6.47;3.87;;;-1.20;99.90;;;;;;5071274;28;20227;-86
2023/01/26 05:25:38;;;;;;;5.60;3.87;;;-1.10;99.90;;;;;;5070898;28;20524;-86
2023/01/26 05:28:04;;;;;;;6.03;3.70;;;-1.10;99.90;;;;;;5071285;28;20268;-86
2023/01/26 05:30:30;;;;;;;6.50;4.03;;;-1.10;99.90;;;;;;5071999;28;20166;-85
2023/01/26 05:33:08;;;;;;;6.27;3.23;;;-1.10;99.90;;;;;;5072289;28;20197;-84
2023/01/26 05:35:34;;;;;;;6.60;3.77;;;-1.10;99.90;;;;;;5072382;28;20183;-85
2023/01/26 05:38:00;;;;;;;5.83;3.37;;;-1.10;99.90;;;;;;5072120;28;20316;-85
2023/01/26 05:40:25;;;;;;;6.90;3.77;;;-1.00;99.90;;;;;;5070979;28;20246;-85
2023/01/26 05:42:52;;;;;;;5.63;3.30;;;-1.10;99.90;;;;;;5071999;28;20194;-85
2023/01/26 05:45:18;;;;;;;7.37;3.93;;;-1.00;99.90;;;;;;5072081;28;20179;-85
2023/01/26 05:47:47;;;;;;;5.43;3.50;;;-1.10;99.90;;;;;;5070992;28;20277;-85
2023/01/26 05:50:13;;;;;;;6.30;3.63;;;-1.10;99.90;;;;;;5071934;28;20665;-86
2023/01/26 05:52:40;;;;;;;5.23;3.20;;;-1.10;99.90;;;;;;5072156;28;20203;-85
2023/01/26 05:55:06;;;;;;;5.27;3.53;;;-1.10;99.90;;;;;;5071083;28;20178;-85
2023/01/26 05:57:32;;;;;;;4.77;3.20;;;-1.10;99.90;;;;;;5072113;28;20197;-85
2023/01/26 05:59:57;;;;;;;5.90;3.53;;;-1.10;99.90;;;;;;5070836;28;20171;-85
2023/01/26 06:02:26;;;;;;;5.17;3.20;;;-1.10;99.90;;;;;;5070635;28;20171;-86
2023/01/26 06:04:51;;;;;;;4.27;2.90;;;-1.10;99.90;;;;;;5070582;28;20629;-86
2023/01/26 06:07:17;;;;;;;4.73;3.10;;;-1.10;99.90;;;;;;5070589;28;20717;-86
2023/01/26 06:09:44;;;;;;;4.60;3.27;;;-1.10;99.90;;;;;;5071881;28;20223;-83
2023/01/26 06:12:15;;;;;;;3.97;2.90;;;-1.10;99.90;;;;;;5070908;28;20207;-85
2023/01/26 06:14:40;;;;;;;4.20;2.93;;;-1.20;99.90;;;;;;5070591;28;20167;-85
2023/01/26 06:17:06;;;;;;;3.87;2.70;;;-1.20;99.90;;;;;;5070347;28;20174;-85
2023/01/26 06:19:31;;;;;;;4.33;2.63;;;-1.10;99.90;;;;;;5070422;28;20211;-85
2023/01/26 06:21:57;;;;;;;4.77;2.83;;;-1.10;99.90;;;;;;5072940;28;20264;-85
2023/01/26 06:24:23;;;;;;;4.97;3.13;;;-1.20;99.90;;;;;;5073984;28;20197;-85
2023/01/26 06:26:49;;;;;;;5.03;2.93;;;-1.30;99.90;;;;;;5074401;28;20174;-85
2023/01/26 06:29:14;;;;;;;4.47;2.97;;;-1.40;99.90;;;;;;5074214;28;20326;-85
2023/01/26 06:31:40;;;;;;;5.43;3.33;;;-1.40;99.90;;;;;;5075294;28;20252;-85
2023/01/26 06:34:07;;;;;;;4.93;3.03;;;-1.30;99.90;;;;;;5074978;28;20320;-86
2023/01/26 06:36:33;;;;;;;9.70;4.13;;;-1.40;99.90;;;;;;5075270;28;20190;-85
2023/01/26 06:38:59;;;;;;;6.63;3.60;;;-1.40;99.90;;;;;;5073793;28;20214;-84
2023/01/26 06:41:24;;;;;;;5.90;3.97;;;-0.40;99.90;;;;;;5075421;28;20180;-87
2023/01/26 06:43:50;;;;;;;6.00;3.90;;;0.60;99.90;;;;;;5073952;28;20329;-85
2023/01/26 06:46:16;;;;;;;5.30;3.60;;;1.20;99.90;;;;;;5073725;28;20263;-85
2023/01/26 06:48:42;;;;;;;4.87;3.30;;;1.60;99.90;;;;;;5073954;28;20191;-84
2023/01/26 06:51:16;;;;;;;4.47;3.40;;;0.90;99.90;;;;;;5075021;28;20234;-85
2023/01/26 06:53:46;;;;;;;11.20;6.43;;;0.50;99.90;;;;;;5073813;28;20175;-84
2023/01/26 06:56:12;;;;;;;9.40;5.73;;;0.00;99.90;;;;;;5073615;28;20187;-85
2023/01/26 06:58:38;;;;;;;130.40;45.47;;;-0.20;99.90;;;;;;5073676;28;20250;-85
2023/01/26 07:01:04;;;;;;;43.23;18.27;;;-0.50;99.90;;;;;;5074875;28;20177;-84
2023/01/26 07:03:29;;;;;;;10.27;5.87;;;-0.80;99.90;;;;;;5073449;28;20201;-84
2023/01/26 07:05:55;;;;;;;6.33;4.30;;;-0.90;99.90;;;;;;5074858;28;20218;-86
2023/01/26 07:08:20;;;;;;;5.87;3.63;;;-1.00;99.90;;;;;;5074856;28;20188;-85
2023/01/26 07:10:47;;;;;;;5.63;4.20;;;-1.10;99.90;;;;;;5073163;28;20206;-84
2023/01/26 07:13:13;;;;;;;6.37;4.17;;;-1.10;99.90;;;;;;5073572;28;20178;-85
2023/01/26 07:15:38;;;;;;;7.30;4.07;;;-1.10;99.90;;;;;;5073602;28;20555;-85
2023/01/26 07:18:04;;;;;;;7.07;4.60;;;-1.10;99.90;;;;;;5073523;28;20195;-83
2023/01/26 07:20:30;;;;;;;7.50;5.00;;;-1.10;99.90;;;;;;5074355;28;20179;-84
2023/01/26 07:22:57;;;;;;;5.73;3.63;;;-1.10;99.90;;;;;;5073253;28;20286;-84
2023/01/26 07:25:23;;;;;;;6.10;3.90;;;-1.10;99.90;;;;;;5073274;28;20175;-84
2023/01/26 07:27:57;;;;;;;9.47;6.63;;;-1.10;99.90;;;;;;5074420;28;20203;-84
2023/01/26 07:30:22;;;;;;;7.43;5.07;;;-1.10;99.90;;;;;;5072809;28;20167;-84
2023/01/26 07:32:48;;;;;;;7.60;4.87;;;-1.20;99.90;;;;;;5071806;28;20172;-84
2023/01/26 07:35:14;;;;;;;17.03;12.33;;;-1.20;99.90;;;;;;5073098;28;20182;-84
2023/01/26 07:37:39;;;;;;;7.67;5.23;;;-1.30;99.90;;;;;;5072730;28;20216;-84
2023/01/26 07:40:05;;;;;;;8.53;5.37;;;-1.30;99.90;;;;;;5072794;28;20169;-84
2023/01/26 07:42:31;;;;;;;6.13;4.33;;;-1.30;99.90;;;;;;5073866;28;20252;-84
2023/01/26 07:44:57;;;;;;;7.20;4.33;;;-1.20;99.90;;;;;;5074036;28;20266;-84
2023/01/26 07:47:22;;;;;;;7.00;4.63;;;-1.20;99.90;;;;;;5074005;28;20203;-84
2023/01/26 07:49:48;;;;;;;7.07;4.90;;;-1.20;99.90;;;;;;5073849;28;20187;-81
2023/01/26 07:52:13;;;;;;;6.97;4.23;;;-1.20;99.90;;;;;;5072495;28;20182;-82
2023/01/26 07:54:39;;;;;;;8.97;4.97;;;-1.20;99.90;;;;;;5072582;28;20186;-82
2023/01/26 07:57:07;;;;;;;5.80;4.20;;;-1.20;99.90;;;;;;5073769;28;20261;-83
2023/01/26 07:59:32;;;;;;;5.83;4.30;;;-1.20;99.90;;;;;;5073587;28;20179;-83
2023/01/26 08:01:58;;;;;;;6.90;4.60;;;-1.20;99.90;;;;;;5072431;28;20176;-83
2023/01/26 08:04:24;;;;;;;11.67;7.97;;;-1.20;99.90;;;;;;5073360;28;20189;-82
2023/01/26 08:06:52;;;;;;;6.00;4.20;;;-1.30;99.90;;;;;;5072448;28;20182;-83
2023/01/26 08:09:18;;;;;;;4.20;3.13;;;-1.30;99.90;;;;;;5072319;28;20583;-82
2023/01/26 08:11:44;;;;;;;6.10;3.50;;;-1.20;99.90;;;;;;5073384;28;20247;-83
2023/01/26 08:14:09;;;;;;;5.57;3.53;;;-1.20;99.90;;;;;;5071914;28;20266;-81
2023/01/26 08:16:35;;;;;;;4.47;3.47;;;-1.20;99.90;;;;;;5072319;28;20527;-83
2023/01/26 08:19:01;;;;;;;7.40;5.23;;;-1.20;99.90;;;;;;5073332;28;20195;-82
2023/01/26 08:21:27;;;;;;;5.13;3.73;;;-1.30;99.90;;;;;;5073225;28;20235;-82
2023/01/26 08:23:53;;;;;;;6.13;4.43;;;-1.30;99.90;;;;;;5073352;28;20611;-83
2023/01/26 08:26:19;;;;;;;26.60;15.37;;;-1.30;99.90;;;;;;5071840;28;20173;-82
2023/01/26 08:28:45;;;;;;;32.30;17.17;;;-1.30;99.90;;;;;;5071924;28;20324;-83
2023/01/26 08:31:19;;;;;;;27.47;13.93;;;-1.40;99.90;;;;;;5072791;28;20262;-83
2023/01/26 08:33:47;;;;;;;25.10;12.90;;;-1.30;99.90;;;;;;5073262;28;20181;-82
2023/01/26 08:36:14;;;;;;;31.13;16.37;;;-1.40;99.90;;;;;;5073158;28;20265;-82
2023/01/26 08:38:40;;;;;;;9.80;5.70;;;-1.40;99.90;;;;;;5074135;28;20295;-83
2023/01/26 08:41:06;;;;;;;9.23;5.63;;;-1.40;99.90;;;;;;5071759;28;20199;-83
2023/01/26 08:43:31;;;;;;;46.40;23.23;;;-1.40;99.90;;;;;;5072781;28;20291;-83
2023/01/26 08:45:57;;;;;;;7.57;4.00;;;-1.40;99.90;;;;;;5072757;28;20170;-84
2023/01/26 08:48:23;;;;;;;5.47;3.73;;;-1.20;99.90;;;;;;5072035;28;20194;-83
2023/01/26 08:50:53;;;;;;;7.80;5.13;;;-1.20;99.90;;;;;;5070093;28;20268;-83
2023/01/26 08:53:19;;;;;;;15.20;8.03;;;-1.30;99.90;;;;;;5068249;28;20255;-83
2023/01/26 08:55:44;;;;;;;33.43;16.43;;;-1.30;99.90;;;;;;5068154;28;20210;-83
2023/01/26 08:58:10;;;;;;;20.10;10.87;;;-1.40;99.90;;;;;;5052821;28;20197;-83
2023/01/26 09:00:36;;;;;;;28.87;13.03;;;-1.50;99.90;;;;;;5052360;28;20177;-83
2023/01/26 09:03:03;;;;;;;9.10;5.17;;;-1.50;99.90;;;;;;5051109;28;20194;-83
2023/01/26 09:05:35;;;;;;;29.77;13.37;;;-1.50;99.90;;;;;;5067921;28;20698;-83
2023/01/26 09:08:00;;;;;;;8.40;4.80;;;-1.40;99.90;;;;;;5053468;28;20665;-83
2023/01/26 09:10:26;;;;;;;5.73;3.50;;;-1.40;99.90;;;;;;5052637;28;20184;-83
2023/01/26 09:12:52;;;;;;;4.70;3.40;;;-1.20;99.90;;;;;;5052755;28;20221;-82
2023/01/26 09:15:18;;;;;;;5.17;3.40;;;-1.10;99.90;;;;;;5067716;28;20180;-83
2023/01/26 09:17:46;;;;;;;5.50;3.60;;;-1.10;99.90;;;;;;5067738;28;20209;-83
2023/01/26 09:20:12;;;;;;;8.97;5.17;;;-1.20;99.90;;;;;;5068002;28;20239;-82
2023/01/26 09:22:37;;;;;;;8.13;4.97;;;-1.20;99.90;;;;;;5067717;28;20181;-83
2023/01/26 09:25:03;;;;;;;7.07;3.97;;;-1.10;99.90;;;;;;5068076;28;20266;-83
2023/01/26 09:27:29;;;;;;;8.30;4.40;;;-1.10;99.90;;;;;;5052271;28;20722;-83
2023/01/26 09:29:54;;;;;;;5.27;3.77;;;-1.10;99.90;;;;;;5052345;28;20166;-82
2023/01/26 09:32:21;;;;;;;5.60;3.93;;;-1.00;99.90;;;;;;5052470;28;20259;-83
2023/01/26 09:34:46;;;;;;;6.53;4.30;;;-1.00;99.90;;;;;;5067695;28;20177;-83
2023/01/26 09:37:13;;;;;;;5.97;4.00;;;-1.00;99.90;;;;;;5052368;28;20221;-83
2023/01/26 09:39:38;;;;;;;25.83;12.17;;;-1.00;99.90;;;;;;5052364;28;20172;-82
2023/01/26 09:42:38;;;;;;;6.83;4.47;;;-1.10;99.90;;;;;;5052430;28;20186;-83
2023/01/26 09:45:11;;;;;;;6.00;4.03;;;-1.00;99.90;;;;;;5071144;28;20183;-81
2023/01/26 09:47:49;;;;;;;6.20;3.90;;;-1.00;99.90;;;;;;5072010;28;20187;-81
2023/01/26 09:50:18;;;;;;;6.33;4.23;;;-0.90;99.90;;;;;;5071049;28;20154;-83
2023/01/26 09:52:56;;;;;;;6.90;4.33;;;-1.00;99.90;;;;;;5072431;28;20179;-83
2023/01/26 09:55:23;;;;;;;5.83;4.03;;;-0.90;99.90;;;;;;5072675;28;20184;-83
2023/01/26 09:58:01;;;;;;;6.60;4.47;;;-0.80;99.90;;;;;;5076048;28;20187;-82
2023/01/26 10:00:37;;;;;;;5.93;4.23;;;-0.80;99.90;;;;;;5074421;28;20531;-82
2023/01/26 10:03:25;;;;;;;13.37;6.50;;;-0.90;99.90;;;;;;5076057;28;20209;-83
2023/01/26 10:06:04;;;;;;;6.67;4.60;;;-0.90;99.90;;;;;;5075808;28;20177;-83
2023/01/26 10:08:30;;;;;;;5.40;3.90;;;-1.00;99.90;;;;;;5075938;28;20259;-82
2023/01/26 10:11:24;;;;;;;6.33;4.50;;;-1.00;99.90;;;;;;5074470;28;20179;-83
2023/01/26 10:14:09;;;;;;;6.63;4.37;;;-1.00;99.90;;;;;;5074472;28;20659;-82
2023/01/26 10:16:34;;;;;;;7.17;4.20;;;-0.90;99.90;;;;;;5074004;28;20188;-82
2023/01/26 10:19:38;;;;;;;7.07;4.47;;;-0.90;99.90;;;;;;5075563;28;20285;-82
2023/01/26 10:22:21;;;;;;;6.47;4.57;;;-1.00;99.90;;;;;;5072466;28;20332;-82
2023/01/26 10:24:49;;;;;;;5.77;4.10;;;-1.10;99.90;;;;;;5057118;28;20228;-83
2023/01/26 10:27:15;;;;;;;7.63;5.70;;;-1.10;99.90;;;;;;5055336;28;20198;-82
2023/01/26 10:29:40;;;;;;;6.73;4.63;;;-1.10;99.90;;;;;;5055468;28;20177;-82
2023/01/26 10:32:16;;;;;;;6.90;4.60;;;-1.20;99.90;;;;;;5071121;28;20175;-83
2023/01/26 10:34:43;;;;;;;7.70;4.40;;;-1.00;99.90;;;;;;5074045;28;20189;-83
2023/01/26 10:37:21;;;;;;;5.93;4.13;;;-1.00;99.90;;;;;;5075226;28;20178;-83
2023/01/26 10:40:06;;;;;;;6.50;4.70;;;-0.90;99.90;;;;;;5075299;28;20531;-83
2023/01/26 10:42:33;;;;;;;7.13;5.00;;;-0.90;99.90;;;;;;5074993;28;20152;-82
2023/01/26 10:45:02;;;;;;;6.93;4.60;;;-1.00;99.90;;;;;;5074127;28;20171;-83
2023/01/26 10:47:28;;;;;;;7.33;5.03;;;-0.90;99.90;;;;;;5074777;28;20294;-83
2023/01/26 10:50:18;;;;;;;7.27;4.87;;;-0.80;99.90;;;;;;5075197;28;20705;-83
2023/01/26 10:53:04;;;;;;;8.43;4.87;;;-0.70;99.90;;;;;;5073714;28;20632;-83
2023/01/26 10:55:32;;;;;;;9.73;5.43;;;-0.70;99.90;;;;;;5073281;28;20184;-83
2023/01/26 10:57:58;;;;;;;8.63;5.33;;;-0.80;99.90;;;;;;5073692;28;20207;-83
2023/01/26 11:00:30;;;;;;;9.23;5.13;;;-0.90;99.90;;;;;;5073669;28;20170;-84
2023/01/26 11:03:10;;;;;;;8.17;5.23;;;-0.90;99.90;;;;;;5074880;28;20744;-84
2023/01/26 11:05:36;;;;;;;10.43;5.57;;;-1.00;99.90;;;;;;5073667;28;20257;-82
2023/01/26 11:08:05;;;;;;;10.10;5.57;;;-1.00;99.90;;;;;;5074751;28;20278;-82
2023/01/26 11:10:36;;;;;;;9.60;5.70;;;-1.00;99.90;;;;;;5074805;28;20202;-84
2023/01/26 11:13:12;;;;;;;15.70;8.07;;;-1.00;99.90;;;;;;5073330;28;20245;-84
2023/01/26 11:15:40;;;;;;;11.10;6.40;;;-1.00;99.90;;;;;;5073757;28;20181;-80
2023/01/26 11:18:27;;;;;;;12.97;6.93;;;-1.10;99.90;;;;;;5077421;28;20195;-83
2023/01/26 11:21:18;;;;;;;9.90;6.13;;;-1.20;99.90;;;;;;5079548;28;20153;-84
2023/01/26 11:24:08;;;;;;;10.97;5.73;;;-1.20;99.90;;;;;;5050144;28;20202;-83
2023/01/26 11:27:07;;;;;;;10.83;5.43;;;-1.20;99.90;;;;;;5073275;28;20170;-85
2023/01/26 11:30:05;;;;;;;12.70;5.60;;;-1.20;99.90;;;;;;5074483;28;20154;-84
2023/01/26 11:32:54;;;;;;;11.40;5.60;;;-1.20;99.90;;;;;;5072836;28;20178;-85
2023/01/26 11:35:26;;;;;;;8.80;5.00;;;-1.10;99.90;;;;;;5073542;28;20173;-85
2023/01/26 11:38:10;;;;;;;8.80;4.90;;;-1.10;99.90;;;;;;5073210;28;20197;-84
2023/01/26 11:41:14;;;;;;;8.20;4.23;;;-1.30;99.90;;;;;;5072563;28;20544;-85
2023/01/26 11:43:51;;;;;;;10.67;5.70;;;-1.30;99.90;;;;;;5072781;28;20201;-85
2023/01/26 11:46:25;;;;;;;9.43;5.20;;;-1.30;99.90;;;;;;5072985;28;20167;-86
2023/01/26 11:49:02;;;;;;;9.50;5.23;;;-1.20;99.90;;;;;;5072658;28;20206;-85
2023/01/26 11:51:58;;;;;;;8.33;4.27;;;-1.30;99.90;;;;;;5073044;28;20283;-85
2023/01/26 11:54:37;;;;;;;7.30;4.00;;;-1.30;99.90;;;;;;5074262;28;20688;-84
2023/01/26 11:57:09;;;;;;;9.50;5.00;;;-1.30;99.90;;;;;;5074247;28;20186;-84
2023/01/26 11:59:34;;;;;;;9.10;4.77;;;-1.20;99.90;;;;;;5072971;28;20166;-85
2023/01/26 12:02:05;;;;;;;9.07;4.93;;;-1.20;99.90;;;;;;5073344;28;20235;-81
2023/01/26 12:04:36;;;;;;;9.97;6.03;;;-1.20;99.90;;;;;;5066603;28;20214;-82
2023/01/26 12:07:12;;;;;;;8.20;4.77;;;-1.40;99.90;;;;;;5071738;28;20211;-83
2023/01/26 12:09:59;;;;;;;9.13;5.43;;;-1.30;99.90;;;;;;5073398;28;20207;-82
2023/01/26 12:12:36;;;;;;;12.00;7.83;;;-1.20;99.90;;;;;;5072729;28;20161;-83
2023/01/26 12:15:10;;;;;;;9.87;5.63;;;-1.30;99.90;;;;;;5073260;28;20181;-82
2023/01/26 12:17:46;;;;;;;10.37;5.97;;;-1.10;99.90;;;;;;5076627;28;20214;-82
2023/01/26 12:20:34;;;;;;;9.77;5.87;;;-1.20;99.90;;;;;;5075508;28;20287;-83
2023/01/26 12:23:05;;;;;;;11.17;6.60;;;-1.20;99.90;;;;;;5073107;28;20275;-83
2023/01/26 12:25:38;;;;;;;12.87;7.50;;;-1.10;99.90;;;;;;5073439;28;20515;-82
2023/01/26 12:28:28;;;;;;;11.67;6.50;;;-1.20;99.90;;;;;;5072037;28;20207;-83
2023/01/26 12:30:56;;;;;;;13.80;7.47;;;-1.20;99.90;;;;;;5072118;28;20168;-82
2023/01/26 12:33:22;;;;;;;12.27;6.70;;;-1.10;99.90;;;;;;5072054;28;20177;-83
2023/01/26 12:36:16;;;;;;;12.97;7.03;;;-1.10;99.90;;;;;;5072323;28;20181;-82
2023/01/26 12:39:00;;;;;;;14.30;7.70;;;-1.00;99.90;;;;;;5073148;28;20205;-83
2023/01/26 12:41:25;;;;;;;12.63;7.50;;;-1.00;99.90;;;;;;5074261;28;20169;-83
2023/01/26 12:43:57;;;;;;;12.17;7.80;;;-0.90;99.90;;;;;;5071507;28;20190;-84
2023/01/26 12:46:27;;;;;;;11.00;6.57;;;-0.80;99.90;;;;;;5072659;28;20652;-83
2023/01/26 12:48:59;;;;;;;13.50;7.50;;;-0.70;99.90;;;;;;5071592;28;20196;-82
2023/01/26 12:51:32;;;;;;;13.37;7.57;;;-0.80;99.90;;;;;;5071758;28;20167;-83
2023/01/26 12:54:30;;;;;;;14.23;8.00;;;-0.70;99.90;;;;;;5071401;28;20235;-83
2023/01/26 12:56:59;;;;;;;14.60;7.57;;;-0.70;99.90;;;;;;5070744;28;20564;-83
2023/01/26 12:59:34;;;;;;;14.07;8.67;;;-0.60;99.90;;;;;;5071395;28;20183;-83
2023/01/26 13:02:16;;;;;;;13.40;7.60;;;-0.70;99.90;;;;;;5071637;28;20178;-83
2023/01/26 13:04:43;;;;;;;16.70;9.83;;;-0.60;99.90;;;;;;5071504;28;20191;-82
2023/01/26 13:07:44;;;;;;;21.20;12.07;;;-0.60;99.90;;;;;;5072702;28;20204;-83
2023/01/26 13:10:12;;;;;;;12.13;7.50;;;-0.60;99.90;;;;;;4974493;28;20305;-83
2023/01/26 13:12:48;;;;;;;13.17;7.20;;;-0.60;99.90;;;;;;5057174;28;20182;-84
2023/01/26 13:15:15;;;;;;;12.73;6.97;;;-0.60;99.90;;;;;;5072475;28;20171;-83
2023/01/26 13:17:47;;;;;;;12.97;7.43;;;-0.60;99.90;;;;;;5072334;28;20191;-82
2023/01/26 13:20:26;;;;;;;12.87;6.63;;;-0.60;99.90;;;;;;5064878;28;20171;-83
2023/01/26 13:22:52;;;;;;;13.30;7.67;;;-0.60;99.90;;;;;;5054190;28;20180;-81
2023/01/26 13:25:31;;;;;;;16.53;9.67;;;-0.90;99.90;;;;;;5052621;28;20178;-81
2023/01/26 13:27:59;;;;;;;12.47;7.50;;;-1.20;99.90;;;;;;5052583;28;20187;-82
2023/01/26 13:30:25;;;;;;;13.40;8.63;;;-1.00;99.90;;;;;;5051472;28;20180;-81
2023/01/26 13:33:00;;;;;;;12.50;6.43;;;-1.00;99.90;;;;;;5078479;28;20236;-82
2023/01/26 13:35:28;;;;;;;12.20;6.13;;;-0.80;99.90;;;;;;5076653;28;20170;-82
2023/01/26 13:38:15;;;;;;;13.17;7.80;;;-0.70;99.90;;;;;;5075352;28;20206;-81
2023/01/26 13:40:45;;;;;;;13.53;6.20;;;-0.70;99.90;;;;;;5076361;28;20172;-81